Time;durP1;ratioP1;P1;durP2;ratioP2;P2;SDS_P1;SDS_P2;PMS_P1;PMS_P2;Temp;Humidity;BMP_temperature;BMP_pressure;BME280_temperature;BME280_humidity;BME280_pressure;Samples;Min_cycle;Max_cycle;Signal;HPM_P1;HPM_P2
2021/06/18 05:16:02;;;;;;;4.40;1.25;;;;;;;24.59;55.09;101254.88;1763200;81;21165;-66
2021/06/18 05:18:52;;;;;;;4.78;1.30;;;;;;;25.02;53.71;101255.37;1746686;82;21132;-69
2021/06/18 05:21:44;;;;;;;3.50;1.17;;;;;;;25.41;52.46;101260.72;1764236;81;21323;-63
2021/06/18 05:28:44;;;;;;;7.80;1.20;;;;;;;26.89;48.31;101268.61;1764102;81;21349;-66
2021/06/18 05:35:45;;;;;;;8.65;1.35;;;;;;;28.97;41.99;101264.53;1764214;81;21926;-64
2021/06/18 05:42:45;;;;;;;4.40;0.93;;;;;;;31.04;37.46;101264.31;1763439;81;21466;-65
2021/06/18 05:45:37;;;;;;;4.12;1.30;;;;;;;31.75;35.16;101268.89;1746380;82;21169;-67
2021/06/18 05:48:28;;;;;;;4.28;1.07;;;;;;;32.31;34.29;101258.22;1762649;81;21216;-65
2021/06/18 05:51:19;;;;;;;2.75;1.35;;;;;;;32.85;31.67;101260.37;1747824;82;21862;-63
2021/06/18 05:54:14;;;;;;;6.03;1.00;;;;;;;33.36;31.46;101256.70;1766034;81;21233;-63
2021/06/18 05:57:06;;;;;;;6.55;0.80;;;;;;;34.13;30.39;101256.28;1747741;82;21211;-67
2021/06/18 05:59:57;;;;;;;1.55;0.80;;;;;;;34.87;29.56;101253.96;1764138;81;21300;-64
2021/06/18 06:02:47;;;;;;;6.15;1.17;;;;;;;35.38;28.43;101252.56;1747335;81;21322;-63
2021/06/18 06:05:38;;;;;;;1.30;0.80;;;;;;;35.55;27.69;101254.45;1733810;82;21480;-65
2021/06/18 06:08:29;;;;;;;4.08;0.98;;;;;;;35.57;24.63;101252.27;1736659;82;22014;-70
2021/06/18 06:11:20;;;;;;;2.75;0.90;;;;;;;35.43;24.62;101249.28;1767452;81;21162;-64
2021/06/18 06:14:16;;;;;;;4.17;1.12;;;;;;;35.30;24.51;101253.94;1768702;81;21346;-65
2021/06/18 06:17:04;;;;;;;3.25;0.80;;;;;;;34.98;24.85;101256.14;1767196;80;21236;-64
2021/06/18 06:19:54;;;;;;;2.65;0.70;;;;;;;34.72;25.00;101255.34;1768138;81;21165;-66
2021/06/18 06:22:45;;;;;;;1.65;0.90;;;;;;;34.30;25.37;101252.80;1767989;81;22142;-65
2021/06/18 06:25:35;;;;;;;5.97;1.20;;;;;;;33.63;26.25;101261.48;1768184;81;21315;-65
2021/06/18 06:28:28;;;;;;;12.25;3.67;;;;;;;32.70;27.10;101262.95;1767196;81;22132;-68
2021/06/18 06:31:19;;;;;;;14.38;6.47;;;;;;;31.79;28.00;101263.77;1768454;81;21181;-67
2021/06/18 06:34:09;;;;;;;7.55;2.85;;;;;;;30.93;28.88;101269.25;1767026;81;21471;-66
2021/06/18 06:37:00;;;;;;;3.17;1.45;;;;;;;30.33;30.28;101273.01;1768258;81;21217;-63
2021/06/18 06:39:51;;;;;;;7.70;0.98;;;;;;;30.06;31.28;101267.05;1768029;81;21977;-67
2021/06/18 06:42:41;;;;;;;12.58;1.85;;;;;;;29.95;31.52;101270.05;1767900;81;21183;-66
2021/06/18 06:45:32;;;;;;;4.80;0.80;;;;;;;29.84;31.57;101274.96;1766615;81;21460;-67
2021/06/18 06:48:24;;;;;;;5.72;0.75;;;;;;;29.55;31.59;101267.28;1766504;81;21328;-63
2021/06/18 06:51:15;;;;;;;1.67;0.70;;;;;;;29.15;31.92;101266.32;1767846;81;21288;-70
2021/06/18 06:54:06;;;;;;;1.87;0.90;;;;;;;28.81;32.70;101265.22;1767464;81;21516;-66
2021/06/18 06:56:57;;;;;;;3.10;0.98;;;;;;;28.62;33.38;101270.38;1768047;81;21998;-65
2021/06/18 06:59:48;;;;;;;1.40;0.78;;;;;;;28.64;33.57;101275.00;1766798;81;21324;-68
2021/06/18 07:02:39;;;;;;;8.08;1.07;;;;;;;28.94;32.90;101280.37;1768183;81;21213;-65
2021/06/18 07:05:29;;;;;;;2.98;0.93;;;;;;;29.15;32.52;101271.20;1768050;81;21201;-64
2021/06/18 07:08:22;;;;;;;4.35;0.95;;;;;;;29.47;32.55;101276.28;1769563;80;21235;-64
2021/06/18 07:11:13;;;;;;;3.50;0.95;;;;;;;29.83;31.47;101278.18;1782022;80;21303;-65
2021/06/18 07:14:04;;;;;;;3.08;0.90;;;;;;;29.97;30.56;101274.71;1781311;80;21597;-61
2021/06/18 07:16:55;;;;;;;7.80;1.42;;;;;;;29.90;31.05;101271.33;1781835;80;21578;-67
2021/06/18 07:19:46;;;;;;;1.87;0.88;;;;;;;29.84;31.76;101284.41;1765618;80;21326;-64
2021/06/18 07:22:37;;;;;;;2.95;1.20;;;;;;;29.97;32.41;101276.86;1782133;80;21295;-66
2021/06/18 07:25:28;;;;;;;2.45;1.00;;;;;;;30.21;32.57;101282.20;1780343;80;22005;-66
2021/06/18 07:28:19;;;;;;;6.95;1.27;;;;;;;30.52;32.45;101276.36;1781454;80;21343;-65
2021/06/18 07:31:09;;;;;;;10.28;1.40;;;;;;;30.75;31.77;101295.14;1781808;80;21178;-66
2021/06/18 07:34:01;;;;;;;4.00;0.95;;;;;;;30.90;31.44;101277.05;1781790;80;22155;-67
2021/06/18 07:36:52;;;;;;;3.72;0.98;;;;;;;31.28;30.39;101279.83;1782010;80;21303;-68
2021/06/18 07:39:42;;;;;;;12.53;1.07;;;;;;;31.75;29.11;101293.78;1780726;80;21307;-67
2021/06/18 07:42:33;;;;;;;3.87;0.95;;;;;;;31.97;28.78;101277.05;1781856;80;21852;-63
2021/06/18 07:45:23;;;;;;;1.45;0.90;;;;;;;32.02;27.90;101276.30;1780683;80;21307;-63
2021/06/18 07:48:15;;;;;;;1.80;0.80;;;;;;;31.89;27.63;101269.33;1781676;80;21306;-65
2021/06/18 07:51:06;;;;;;;4.70;0.98;;;;;;;31.94;28.60;101269.39;1782161;80;21443;-63
2021/06/18 07:53:56;;;;;;;2.58;0.88;;;;;;;32.34;29.11;101267.17;1781852;80;21533;-67
2021/06/18 07:56:47;;;;;;;5.92;1.05;;;;;;;32.67;29.40;101267.55;1781845;80;21498;-68
2021/06/18 07:59:37;;;;;;;10.15;1.80;;;;;;;33.06;28.34;101270.87;1780846;80;21208;-70
2021/06/18 08:02:27;;;;;;;2.52;1.10;;;;;;;33.08;26.87;101268.17;1781896;80;21184;-66
2021/06/18 08:05:18;;;;;;;5.85;0.82;;;;;;;33.08;26.86;101264.64;1780928;80;21190;-67
2021/06/18 08:08:08;;;;;;;7.05;0.98;;;;;;;33.18;27.17;101255.22;1781725;80;21311;-68
2021/06/18 08:14:54;;;;;;;16.12;1.98;;;;;;;33.64;26.58;101244.95;1781403;80;21454;-66
2021/06/18 08:17:46;;;;;;;2.95;0.93;;;;;;;33.73;25.20;101254.22;1781790;80;21299;-63
2021/06/18 08:20:37;;;;;;;2.95;0.70;;;;;;;33.56;25.98;101256.83;1780583;80;21345;-68
2021/06/18 08:23:27;;;;;;;36.93;3.40;;;;;;;33.36;25.61;101248.03;1781773;80;21165;-63
2021/06/18 08:26:19;;;;;;;4.90;0.70;;;;;;;33.19;25.57;101259.05;1780678;80;21318;-63
2021/06/18 08:29:10;;;;;;;5.35;1.20;;;;;;;33.04;24.99;101242.66;1781557;80;21362;-69
2021/06/18 08:32:00;;;;;;;101.87;6.92;;;;;;;32.96;26.15;101244.45;1781936;80;21307;-64
2021/06/18 08:34:51;;;;;;;18.67;2.02;;;;;;;32.90;24.90;101246.86;1781588;80;21295;-63
2021/06/18 08:37:41;;;;;;;10.45;1.20;;;;;;;32.93;25.00;101245.52;1781523;80;21342;-64
2021/06/18 08:40:33;;;;;;;5.15;1.20;;;;;;;32.88;25.38;101245.48;1780707;80;21311;-60
2021/06/18 08:43:24;;;;;;;1.95;0.72;;;;;;;32.70;26.02;101232.32;1781564;80;22026;-65
2021/06/18 08:46:18;;;;;;;2.40;1.10;;;;;;;32.71;26.64;101235.30;1779892;80;21528;-65
2021/06/18 08:49:09;;;;;;;7.72;1.30;;;;;;;32.84;26.74;101241.66;1780096;80;21173;-69
2021/06/18 08:51:59;;;;;;;9.83;1.40;;;;;;;32.64;26.59;101229.27;1763831;80;21149;-62
2021/06/18 08:54:51;;;;;;;6.78;0.98;;;;;;;32.29;26.93;101232.45;1781664;80;21369;-68
2021/06/18 08:57:42;;;;;;;3.52;0.70;;;;;;;31.94;27.60;101218.76;1781873;80;22143;-66
2021/06/18 09:00:33;;;;;;;1.42;0.80;;;;;;;31.60;28.94;101213.19;1780723;80;21224;-68
2021/06/18 09:03:44;;;;;;;2.00;0.90;;;;;;;31.44;29.93;101217.30;1781616;80;21200;-68
2021/06/18 09:06:43;;;;;;;4.50;1.00;;;;;;;31.46;30.26;101208.39;1781070;80;21427;-67
2021/06/18 09:09:35;;;;;;;3.00;1.00;;;;;;;31.56;30.27;101210.70;1781289;80;21410;-69
2021/06/18 09:12:25;;;;;;;3.62;1.20;;;;;;;31.64;29.60;101206.22;1766691;80;21287;-70
2021/06/18 09:15:29;;;;;;;2.60;0.95;;;;;;;31.71;29.16;101200.61;1781656;80;21303;-70
2021/06/18 09:18:39;;;;;;;6.00;1.05;;;;;;;31.79;28.51;101209.09;1781913;80;21299;-69
2021/06/18 09:21:30;;;;;;;11.63;1.20;;;;;;;31.78;28.75;101202.06;1781256;80;21303;-70
2021/06/18 09:24:27;;;;;;;3.92;0.90;;;;;;;31.65;27.44;101200.24;1781799;80;21318;-70
2021/06/18 09:27:18;;;;;;;4.10;0.98;;;;;;;31.53;26.40;101206.31;1780925;80;21354;-69
2021/06/18 09:30:32;;;;;;;3.72;0.70;;;;;;;31.26;26.94;101192.13;1766607;80;21254;-68
2021/06/18 09:37:43;;;;;;;4.78;1.05;;;;;;;30.79;28.25;101213.00;1780362;80;20456;-68
2021/06/18 09:40:31;;;;;;;1.53;0.80;;;;;;;30.67;29.59;101202.83;1780468;80;21268;-68
2021/06/18 09:43:21;;;;;;;9.98;1.00;;;;;;;30.56;30.29;101200.48;1781600;80;22005;-70
2021/06/18 09:46:11;;;;;;;25.55;1.92;;;;;;;30.39;31.24;101207.73;1780430;80;21986;-66
2021/06/18 09:49:02;;;;;;;18.30;1.65;;;;;;;30.25;30.90;101195.57;1780207;80;21287;-71
2021/06/18 09:52:21;;;;;;;4.92;1.00;;;;;;;30.05;30.36;101197.35;1780798;80;21467;-67
2021/06/18 09:55:21;;;;;;;21.93;1.87;;;;;;;29.85;29.23;101196.98;1750942;81;21442;-67
2021/06/18 09:58:12;;;;;;;6.35;1.20;;;;;;;29.64;30.42;101200.30;1730464;81;21334;-70
2021/06/18 10:01:28;;;;;;;16.45;1.92;;;;;;;29.56;30.43;101213.63;1750909;81;21230;-67
2021/06/18 10:08:28;;;;;;;19.40;1.75;;;;;;;29.50;30.94;101203.77;1771940;81;21274;-66
2021/06/18 10:11:19;;;;;;;21.65;2.22;;;;;;;29.45;32.74;101203.65;1772205;81;21214;-70
2021/06/18 10:14:10;;;;;;;6.08;1.00;;;;;;;29.39;31.77;101194.34;1773161;81;21278;-65
2021/06/18 10:21:11;;;;;;;8.75;1.57;;;;;;;29.13;32.85;101196.98;1772099;81;21980;-64
2021/06/18 10:28:15;;;;;;;4.47;1.10;;;;;;;29.10;32.88;101196.09;1772189;81;21296;-69
2021/06/18 10:31:07;;;;;;;7.30;1.00;;;;;;;29.01;30.82;101210.98;1772256;81;21217;-74
2021/06/18 10:34:17;;;;;;;2.10;0.90;;;;;;;28.94;29.32;101207.58;1773025;81;21328;-70
2021/06/18 10:37:21;;;;;;;7.40;1.00;;;;;;;28.89;30.21;101209.63;1771892;81;21579;-63
2021/06/18 10:40:13;;;;;;;2.80;0.80;;;;;;;28.83;29.77;101209.20;1736668;82;21182;-69
2021/06/18 10:43:13;;;;;;;5.03;1.27;;;;;;;28.80;30.37;101219.12;1736288;82;21214;-69
2021/06/18 10:46:09;;;;;;;2.50;0.90;;;;;;;28.77;30.62;101207.97;1705153;84;21271;-67
2021/06/18 10:49:12;;;;;;;12.03;1.20;;;;;;;28.72;30.68;101207.32;1711970;83;22012;-68
2021/06/18 10:52:03;;;;;;;10.23;1.10;;;;;;;28.73;30.96;101220.27;1712499;83;21203;-66
2021/06/18 10:54:56;;;;;;;2.95;0.98;;;;;;;28.74;30.82;101223.24;1673954;85;21188;-65
2021/06/18 10:57:53;;;;;;;6.75;1.00;;;;;;;28.74;30.44;101223.24;1733638;82;21214;-65
2021/06/18 11:00:44;;;;;;;12.60;1.45;;;;;;;28.74;30.44;101223.24;1732439;82;21162;-68
2021/06/18 11:03:59;;;;;;;7.90;1.27;;;;;;;28.78;30.20;101221.20;1733213;82;21189;-70
2021/06/18 11:06:53;;;;;;;7.42;1.20;;;;;;;28.80;29.53;101229.08;1732498;82;21190;-71
2021/06/18 11:09:45;;;;;;;2.27;1.00;;;;;;;28.78;29.44;101218.50;1732535;82;21233;-68
2021/06/18 11:12:38;;;;;;;2.67;0.80;;;;;;;28.72;30.06;101218.62;1733982;82;21487;-72
2021/06/18 11:15:33;;;;;;;5.05;1.30;;;;;;;28.69;30.88;101214.52;1733866;82;21233;-65
2021/06/18 11:18:33;;;;;;;2.80;0.80;;;;;;;28.72;31.27;101212.70;1733442;82;21312;-71
2021/06/18 11:25:43;;;;;;;10.98;1.15;;;;;;;28.71;31.55;101218.34;1732351;82;21340;-69
2021/06/18 11:28:41;;;;;;;11.73;1.50;;;;;;;28.67;32.41;101213.41;1733501;82;22231;-64
2021/06/18 11:31:42;;;;;;;3.50;1.17;;;;;;;28.68;32.01;101227.70;1733310;82;21210;-69
2021/06/18 11:34:33;;;;;;;6.12;1.17;;;;;;;28.65;30.56;101203.91;1703554;84;22018;-63
2021/06/18 11:37:33;;;;;;;10.48;1.10;;;;;;;28.55;30.92;101215.74;1704437;84;22020;-59
2021/06/18 11:40:24;;;;;;;3.30;0.93;;;;;;;28.51;31.62;101222.12;1704571;84;21186;-63
2021/06/18 11:43:15;;;;;;;11.90;1.72;;;;;;;28.58;32.45;101214.77;1704374;84;21185;-63
2021/06/18 11:46:05;;;;;;;18.75;2.08;;;;;;;28.58;32.45;101214.77;1704271;84;21177;-59
2021/06/18 11:49:01;;;;;;;4.42;1.07;;;;;;;28.63;31.95;101228.41;1703935;84;21479;-61
2021/06/18 11:51:50;;;;;;;18.98;2.05;;;;;;;28.59;30.83;101211.52;1703494;84;21195;-63
2021/06/18 11:54:41;;;;;;;8.08;1.20;;;;;;;28.53;31.08;101213.80;1700544;84;21313;-63
2021/06/18 11:57:35;;;;;;;8.45;1.62;;;;;;;28.48;31.44;101209.63;1691150;84;21600;-65
2021/06/18 12:00:36;;;;;;;10.28;1.45;;;;;;;28.46;31.74;101203.66;1672255;84;21404;-63
2021/06/18 12:03:33;;;;;;;10.35;1.30;;;;;;;28.42;32.20;101212.70;1675850;85;22089;-62
2021/06/18 12:06:29;;;;;;;3.20;1.40;;;;;;;28.42;32.20;101212.70;1691196;84;22144;-58
2021/06/18 12:09:22;;;;;;;10.28;1.67;;;;;;;28.44;31.38;101204.42;1676259;85;21278;-62
2021/06/18 12:12:13;;;;;;;7.43;1.30;;;;;;;28.35;31.03;101207.95;1692396;84;22197;-62
2021/06/18 12:15:04;;;;;;;6.17;1.27;;;;;;;28.35;31.03;101207.95;1676368;85;21235;-60
2021/06/18 12:17:58;;;;;;;1.80;1.17;;;;;;;28.35;31.11;101215.23;1692546;84;21611;-67
2021/06/18 12:20:48;;;;;;;5.87;1.15;;;;;;;28.35;31.05;101200.42;1676505;85;21222;-63
2021/06/18 12:27:53;;;;;;;15.48;1.40;;;;;;;28.37;32.69;101195.62;1692577;84;21126;-64
